Time;durP1;ratioP1;P1;durP2;ratioP2;P2;SDS_P1;SDS_P2;PMS_P1;PMS_P2;Temp;Humidity;BMP_temperature;BMP_pressure;BME280_temperature;BME280_humidity;BME280_pressure;Samples;Min_cycle;Max_cycle;Signal;HPM_P1;HPM_P2
2022/10/31 00:00:40;;;;;;;8.85;3.53;;;;;;;22.00;65.89;99353.00;2073767;28;20053;-52
2022/10/31 00:01:41;;;;;;;6.70;4.00;;;;;;;22.01;65.98;99363.63;2074607;28;20052;-53
2022/10/31 00:02:42;;;;;;;6.40;3.35;;;;;;;22.01;65.88;99360.91;2076288;28;20052;-58
2022/10/31 00:03:44;;;;;;;8.50;3.03;;;;;;;22.02;65.84;99359.03;2074952;28;20165;-51
2022/10/31 00:04:45;;;;;;;4.45;3.40;;;;;;;22.02;65.85;99364.44;2076383;28;20068;-52
2022/10/31 00:05:48;;;;;;;3.78;3.22;;;;;;;22.01;65.81;99366.31;2075086;28;20053;-54
2022/10/31 00:06:50;;;;;;;5.60;2.97;;;;;;;22.01;65.86;99360.91;2074434;28;20045;-52
2022/10/31 00:07:52;;;;;;;4.35;2.92;;;;;;;22.01;65.51;99358.22;2074998;28;20414;-52
2022/10/31 00:08:56;;;;;;;4.80;3.28;;;;;;;22.01;65.83;99358.22;2075167;28;20053;-51
2022/10/31 00:09:57;;;;;;;4.50;2.63;;;;;;;22.00;66.01;99359.22;2074574;28;20053;-51
2022/10/31 00:10:59;;;;;;;7.18;3.47;;;;;;;22.01;65.96;99355.50;2075750;28;20079;-54
2022/10/31 00:12:00;;;;;;;7.38;3.50;;;;;;;22.00;65.94;99359.22;2074820;28;21735;-51
2022/10/31 00:13:01;;;;;;;6.18;3.25;;;;;;;22.01;65.85;99357.38;2075309;28;20053;-52
2022/10/31 00:14:03;;;;;;;6.32;3.03;;;;;;;22.02;65.73;99351.75;2073861;28;20052;-51
2022/10/31 00:15:06;;;;;;;5.03;3.45;;;;;;;22.00;65.71;99353.00;2075654;28;20049;-53
2022/10/31 00:16:14;;;;;;;4.32;3.35;;;;;;;22.00;65.87;99353.84;2074982;28;20076;-51
2022/10/31 00:17:15;;;;;;;5.97;3.25;;;;;;;22.00;65.67;99359.22;2075860;28;20052;-51
2022/10/31 00:18:16;;;;;;;9.52;3.40;;;;;;;21.98;65.81;99355.94;2075961;28;20657;-51
2022/10/31 00:19:18;;;;;;;5.05;2.72;;;;;;;22.00;65.84;99355.72;2076667;28;20047;-52
2022/10/31 00:20:19;;;;;;;7.07;3.05;;;;;;;22.01;65.84;99355.50;2069699;28;20525;-49
2022/10/31 00:21:21;;;;;;;5.70;3.60;;;;;;;21.99;65.92;99349.47;2074483;28;20042;-53
2022/10/31 00:22:22;;;;;;;6.13;3.65;;;;;;;21.99;65.66;99354.88;2074146;28;20061;-53
2022/10/31 00:23:24;;;;;;;6.28;3.33;;;;;;;21.99;65.75;99345.94;2073286;28;20406;-52
2022/10/31 00:24:25;;;;;;;7.00;3.67;;;;;;;21.98;66.08;99355.06;2074841;28;20042;-51
2022/10/31 00:25:27;;;;;;;3.95;2.47;;;;;;;21.99;65.86;99352.19;2074621;28;20697;-52
2022/10/31 00:26:30;;;;;;;6.32;2.83;;;;;;;21.97;65.82;99354.25;2073743;28;20594;-54
2022/10/31 00:27:31;;;;;;;5.85;2.97;;;;;;;21.98;65.71;99350.53;2072756;28;20567;-49
2022/10/31 00:28:32;;;;;;;6.72;3.15;;;;;;;21.98;65.68;99350.53;2073733;28;20053;-52
2022/10/31 00:29:33;;;;;;;6.15;3.60;;;;;;;21.98;65.87;99355.94;2075587;28;20045;-51
2022/10/31 00:30:36;;;;;;;6.38;3.10;;;;;;;21.99;65.76;99352.19;2076552;28;20064;-48
2022/10/31 00:31:37;;;;;;;3.83;2.42;;;;;;;21.97;65.78;99354.25;2074835;28;20057;-53
2022/10/31 00:32:39;;;;;;;;;;;;;;;21.86;66.35;99357.56;2074054;28;20050;-52
2022/10/31 00:33:40;;;;;;;;;;;;;;;21.79;66.32;99359.47;2072980;28;20553;-52
2022/10/31 00:34:42;;;;;;;;;;;;;;;21.73;66.58;99363.81;2076061;28;20341;-51
2022/10/31 00:35:42;;;;;;;5.28;2.70;;;;;;;21.82;66.50;99361.75;2073904;28;20665;-54
2022/10/31 00:36:44;;;;;;;;;;;;;;;21.78;66.40;99357.78;2073580;28;20045;-50
2022/10/31 00:37:45;;;;;;;;;;;;;;;21.72;66.68;99364.00;2070164;28;19929;-51
2022/10/31 00:38:48;;;;;;;4.47;3.25;;;;;;;21.80;66.55;99366.50;2068683;28;19960;-56
2022/10/31 00:39:49;;;;;;;6.13;2.80;;;;;;;21.86;66.12;99357.56;2069971;28;20069;-51
2022/10/31 00:40:51;;;;;;;4.72;3.15;;;;;;;21.90;65.87;99358.84;2072864;28;20586;-53
2022/10/31 00:41:52;;;;;;;6.45;3.25;;;;;;;21.91;65.96;99355.09;2070433;28;20141;-50
2022/10/31 00:42:53;;;;;;;4.43;3.22;;;;;;;21.94;66.01;99351.16;2070160;28;20525;-49
2022/10/31 00:43:54;;;;;;;4.75;3.08;;;;;;;21.94;65.90;99359.25;2069103;28;20057;-53
2022/10/31 00:44:56;;;;;;;5.70;2.85;;;;;;;21.94;65.60;99354.66;2069274;28;20052;-55
2022/10/31 00:45:59;;;;;;;4.22;2.75;;;;;;;21.94;65.58;99351.97;2069943;28;20057;-55
2022/10/31 00:47:00;;;;;;;4.60;2.90;;;;;;;21.93;65.76;99357.59;2069446;28;20080;-51
2022/10/31 00:48:02;;;;;;;6.13;3.30;;;;;;;21.95;65.75;99356.31;2069001;28;20045;-51
2022/10/31 00:49:03;;;;;;;4.90;3.45;;;;;;;21.94;65.83;99351.97;2072396;28;20048;-52
2022/10/31 00:50:06;;;;;;;7.20;2.67;;;;;;;21.94;65.68;99357.38;2069037;28;20095;-55
2022/10/31 00:51:07;;;;;;;4.68;2.78;;;;;;;21.94;65.86;99354.66;2068465;28;20060;-52
2022/10/31 00:52:09;;;;;;;4.05;2.90;;;;;;;21.94;65.76;99349.28;2066618;28;20045;-51
2022/10/31 00:53:10;;;;;;;4.95;2.85;;;;;;;21.95;65.68;99350.09;2069621;28;20057;-53
2022/10/31 00:54:12;;;;;;;4.18;2.28;;;;;;;21.95;65.64;99347.41;2069439;28;20050;-51
2022/10/31 00:55:13;;;;;;;10.13;3.80;;;;;;;21.95;65.56;99347.41;2068882;28;20056;-51
2022/10/31 00:56:14;;;;;;;;;;;;;;;21.85;65.93;99348.66;2075802;28;20068;-50
2022/10/31 00:57:15;;;;;;;10.48;3.58;;;;;;;21.88;65.84;99343.88;2072869;28;19921;-54
2022/10/31 00:58:16;;;;;;;;;;;;;;;21.82;65.96;99353.66;2069412;28;20049;-49
2022/10/31 00:59:17;;;;;;;;;;;;;;;21.72;66.26;99347.81;2071158;28;19936;-51
2022/10/31 01:00:19;;;;;;;3.70;2.37;;;;;;;21.80;66.09;99353.00;2066195;28;20015;-48
2022/10/31 01:01:21;;;;;;;4.70;3.35;;;;;;;21.83;66.02;99341.78;2069180;28;20661;-55
2022/10/31 01:02:22;;;;;;;6.90;3.55;;;;;;;21.88;65.88;99354.69;2070362;28;20084;-53
2022/10/31 01:03:25;;;;;;;6.25;3.90;;;;;;;21.89;65.84;99350.94;2068362;28;20053;-52
2022/10/31 01:04:26;;;;;;;5.38;2.75;;;;;;;21.90;65.73;99348.03;2069687;28;20758;-54
2022/10/31 01:05:27;;;;;;;9.15;3.30;;;;;;;21.90;65.72;99353.44;2071220;28;20669;-52
2022/10/31 01:06:29;;;;;;;3.03;2.72;;;;;;;21.92;65.60;99348.63;2067688;28;20046;-51
2022/10/31 01:07:30;;;;;;;5.57;3.53;;;;;;;21.90;65.90;99350.75;2073470;28;20367;-53
2022/10/31 01:08:32;;;;;;;7.38;3.55;;;;;;;21.91;65.71;99355.09;2074915;28;20040;-54
2022/10/31 01:09:33;;;;;;;6.38;2.10;;;;;;;21.92;65.78;99351.34;2072486;28;20054;-53
2022/10/31 01:10:34;;;;;;;4.80;2.47;;;;;;;21.92;65.76;99345.13;2069835;28;20052;-53
2022/10/31 01:11:35;;;;;;;6.05;3.10;;;;;;;21.92;65.53;99342.41;2068959;28;20811;-54
2022/10/31 01:12:37;;;;;;;5.22;3.35;;;;;;;21.91;65.55;99349.69;2068438;28;20041;-52
2022/10/31 01:13:39;;;;;;;7.05;3.10;;;;;;;21.93;65.75;99344.91;2067301;28;20911;-53
2022/10/31 01:14:44;;;;;;;3.72;2.97;;;;;;;21.92;65.52;99343.22;2070338;28;20045;-51
2022/10/31 01:15:45;;;;;;;3.90;2.47;;;;;;;21.90;65.78;99348.03;2069235;28;20100;-50
2022/10/31 01:16:47;;;;;;;;;;;;;;;21.81;65.89;99354.66;2070732;28;20600;-51
2022/10/31 01:17:48;;;;;;;5.97;2.97;;;;;;;21.83;65.69;99353.41;2063760;28;19936;-53
2022/10/31 01:18:51;;;;;;;4.68;2.90;;;;;;;21.86;65.76;99352.19;2070320;28;20045;-50
2022/10/31 01:19:51;;;;;;;5.10;2.63;;;;;;;21.89;65.58;99345.53;2070980;28;20050;-52
2022/10/31 01:21:00;;;;;;;;;;;;;;;21.78;65.86;99352.38;2071704;28;20059;-54
2022/10/31 01:22:01;;;;;;;6.40;2.83;;;;;;;21.83;65.84;99347.19;2069315;28;19960;-51
2022/10/31 01:23:03;;;;;;;5.40;3.03;;;;;;;21.85;65.84;99347.81;2068798;28;20513;-54
2022/10/31 01:24:04;;;;;;;4.00;2.60;;;;;;;21.88;65.45;99350.09;2070120;28;20549;-52
2022/10/31 01:25:08;;;;;;;6.22;2.78;;;;;;;21.90;65.55;99350.75;2068540;28;21085;-48
2022/10/31 01:26:10;;;;;;;4.03;2.53;;;;;;;21.88;65.43;99346.56;2069349;28;20046;-52
2022/10/31 01:27:12;;;;;;;5.43;3.08;;;;;;;21.89;65.63;99346.34;2071399;28;20045;-50
2022/10/31 01:28:12;;;;;;;6.70;3.63;;;;;;;21.89;65.42;99351.75;2071013;28;20052;-51
2022/10/31 01:29:14;;;;;;;12.32;3.15;;;;;;;21.90;65.45;99347.19;2070738;28;20045;-51
2022/10/31 01:30:15;;;;;;;5.30;2.47;;;;;;;21.90;65.50;99353.44;2069275;28;20053;-49
2022/10/31 01:31:19;;;;;;;4.10;2.97;;;;;;;21.88;65.57;99346.56;2070287;28;20045;-55
2022/10/31 01:32:21;;;;;;;6.70;2.80;;;;;;;21.91;65.62;99347.00;2069186;28;20040;-53
2022/10/31 01:33:23;;;;;;;9.07;2.88;;;;;;;21.89;65.45;99346.34;2071858;28;20045;-48
2022/10/31 01:34:24;;;;;;;3.08;2.33;;;;;;;21.89;65.47;99346.34;2068565;28;20041;-53
2022/10/31 01:35:25;;;;;;;;;;;;;;;21.78;65.86;99350.50;2070708;28;20660;-49
2022/10/31 01:36:28;;;;;;;4.47;2.42;;;;;;;21.80;65.74;99345.72;2069080;28;19925;-54
2022/10/31 01:37:32;;;;;;;5.90;3.30;;;;;;;21.84;65.55;99343.44;2072651;28;20065;-55
2022/10/31 01:38:32;;;;;;;4.95;2.75;;;;;;;21.86;65.48;99346.78;2070990;28;20041;-52
2022/10/31 01:39:34;;;;;;;4.75;2.95;;;;;;;21.85;65.61;99345.94;2071952;28;20060;-54
2022/10/31 01:40:35;;;;;;;3.97;2.42;;;;;;;21.86;65.61;99344.06;2071908;28;20058;-55
2022/10/31 01:41:39;;;;;;;5.55;3.20;;;;;;;21.88;65.37;99344.72;2072105;28;20129;-51
2022/10/31 01:42:40;;;;;;;7.60;3.00;;;;;;;21.88;65.32;99344.72;2073053;28;20045;-51
2022/10/31 01:43:47;;;;;;;5.15;3.00;;;;;;;21.89;65.63;99340.13;2072902;28;20057;-54
2022/10/31 01:44:58;;;;;;;6.82;3.05;;;;;;;21.86;65.35;99338.66;2070840;28;20045;-52
2022/10/31 01:45:59;;;;;;;4.45;2.70;;;;;;;21.84;65.59;99341.59;2075157;28;20470;-55
2022/10/31 01:47:07;;;;;;;6.78;3.03;;;;;;;21.84;65.48;99338.91;2076029;28;20056;-53
2022/10/31 01:48:16;;;;;;;4.43;2.50;;;;;;;21.85;65.58;99339.72;2072862;28;20045;-51
2022/10/31 01:49:21;;;;;;;5.75;2.83;;;;;;;21.85;65.53;99345.13;2073757;28;20052;-50
2022/10/31 01:50:32;;;;;;;7.22;2.70;;;;;;;21.85;65.37;99340.53;2068517;28;20730;-50
2022/10/31 01:51:36;;;;;;;5.05;2.63;;;;;;;21.85;65.41;99334.31;2071294;28;20045;-55
2022/10/31 01:52:41;;;;;;;5.15;3.03;;;;;;;21.85;65.43;99342.41;2068279;28;20053;-48
2022/10/31 01:53:44;;;;;;;3.85;2.45;;;;;;;21.86;65.50;99341.38;2072062;28;20049;-55
2022/10/31 01:54:50;;;;;;;4.93;2.72;;;;;;;21.86;65.30;99341.38;2069069;28;20639;-53
2022/10/31 01:55:52;;;;;;;7.03;3.30;;;;;;;21.82;65.52;99332.88;2072952;28;20045;-54
2022/10/31 01:56:56;;;;;;;3.88;2.10;;;;;;;21.85;65.30;99342.41;2069718;28;20053;-55
2022/10/31 01:58:02;;;;;;;4.25;2.45;;;;;;;21.85;65.37;99339.72;2071562;28;20432;-52
2022/10/31 01:59:08;;;;;;;4.93;3.10;;;;;;;21.83;65.42;99347.19;2071942;28;20061;-52
2022/10/31 02:00:11;;;;;;;7.15;3.20;;;;;;;21.84;65.48;99348.84;2074544;28;20056;-51
2022/10/31 02:01:15;;;;;;;5.53;3.25;;;;;;;21.85;65.60;99347.81;2070940;28;20045;-52
2022/10/31 02:02:18;;;;;;;5.20;2.58;;;;;;;21.84;65.51;99348.84;2069143;28;20049;-53
2022/10/31 02:03:23;;;;;;;7.75;3.03;;;;;;;21.85;65.55;99342.41;2071977;28;20049;-52
2022/10/31 02:04:25;;;;;;;5.20;2.80;;;;;;;21.85;65.33;99337.03;2067531;28;20486;-52
2022/10/31 02:05:29;;;;;;;4.45;2.45;;;;;;;21.84;65.29;99335.34;2071502;28;20049;-51
2022/10/31 02:06:36;;;;;;;3.97;2.65;;;;;;;21.83;65.34;99339.91;2070458;28;20057;-47
2022/10/31 02:07:42;;;;;;;4.13;2.55;;;;;;;21.83;65.29;99339.91;2071192;28;20632;-51
2022/10/31 02:08:43;;;;;;;5.57;3.22;;;;;;;21.84;65.15;99346.13;2070949;28;20056;-51
2022/10/31 02:09:48;;;;;;;3.55;2.40;;;;;;;21.84;65.17;99341.59;2070636;28;20057;-50
2022/10/31 02:10:49;;;;;;;4.05;2.58;;;;;;;21.84;65.48;99346.13;2070347;28;20061;-51
2022/10/31 02:11:53;;;;;;;5.95;3.55;;;;;;;21.84;65.26;99338.03;2069461;28;20088;-54
2022/10/31 02:12:57;;;;;;;4.50;2.72;;;;;;;21.83;65.39;99339.91;2070239;28;20045;-49
2022/10/31 02:14:00;;;;;;;3.25;2.42;;;;;;;21.85;65.43;99347.81;2075752;28;20056;-53
2022/10/31 02:15:03;;;;;;;3.80;2.75;;;;;;;21.82;65.45;99340.13;2071602;28;20129;-55
2022/10/31 02:16:05;;;;;;;4.03;2.47;;;;;;;21.83;65.15;99344.50;2071011;28;20835;-52
2022/10/31 02:17:06;;;;;;;4.88;2.45;;;;;;;21.82;65.22;99342.84;2070430;28;20050;-49
2022/10/31 02:18:09;;;;;;;4.82;2.53;;;;;;;21.83;65.26;99347.19;2070417;28;20562;-55
2022/10/31 02:19:19;;;;;;;4.65;2.15;;;;;;;21.84;65.29;99343.44;2071837;28;20057;-53
2022/10/31 02:20:24;;;;;;;4.00;2.20;;;;;;;21.81;65.24;99344.72;2070788;28;20068;-50
2022/10/31 02:21:38;;;;;;;2.80;2.13;;;;;;;21.81;65.36;99343.84;2071870;28;20056;-50
2022/10/31 02:22:50;;;;;;;5.43;2.97;;;;;;;21.81;65.30;99336.63;2069605;28;20509;-50
2022/10/31 02:24:25;;;;;;;5.40;2.53;;;;;;;21.76;65.20;99343.69;2071148;28;20527;-50
2022/10/31 02:25:47;;;;;;;4.32;2.80;;;;;;;21.74;65.41;99343.03;2071642;28;20049;-51
2022/10/31 02:27:00;;;;;;;5.55;2.67;;;;;;;21.76;65.33;99339.09;2070490;28;20078;-55
2022/10/31 02:28:23;;;;;;;6.97;3.15;;;;;;;21.76;65.29;99335.56;2070896;28;20054;-50
2022/10/31 02:29:55;;;;;;;3.50;2.65;;;;;;;21.74;65.37;99334.94;2073548;28;20060;-50
2022/10/31 02:31:14;;;;;;;4.53;2.70;;;;;;;21.73;65.15;99338.66;2070165;28;20056;-51
2022/10/31 02:32:25;;;;;;;3.92;2.70;;;;;;;21.75;65.35;99337.41;2072537;28;20053;-54
2022/10/31 02:33:35;;;;;;;4.75;2.78;;;;;;;21.77;65.30;99339.94;2071857;28;20510;-55
2022/10/31 02:34:44;;;;;;;5.13;3.17;;;;;;;21.79;65.16;99335.16;2069515;28;20137;-51
2022/10/31 02:35:55;;;;;;;3.42;2.22;;;;;;;21.78;65.20;99344.28;2072611;28;20053;-54
2022/10/31 02:36:58;;;;;;;;;;;;;;;21.66;65.55;99335.13;2071497;28;20052;-52
2022/10/31 02:38:09;;;;;;;6.32;2.88;;;;;;;21.71;65.46;99332.66;2072544;28;19921;-53
2022/10/31 02:39:19;;;;;;;3.38;2.42;;;;;;;21.73;65.29;99333.25;2071852;28;20045;-48
2022/10/31 02:40:25;;;;;;;5.95;2.72;;;;;;;21.73;65.34;99338.66;2071168;28;20060;-55
2022/10/31 02:41:34;;;;;;;3.70;2.15;;;;;;;21.75;65.29;99342.81;2072153;28;20665;-55
2022/10/31 02:42:43;;;;;;;4.47;2.63;;;;;;;21.75;65.12;99342.00;2071293;28;20057;-54
2022/10/31 02:43:55;;;;;;;2.90;2.38;;;;;;;21.75;65.23;99336.59;2070983;28;20046;-53
2022/10/31 02:45:06;;;;;;;4.13;2.95;;;;;;;21.75;65.21;99339.28;2072239;28;20613;-53
2022/10/31 02:46:15;;;;;;;3.33;2.72;;;;;;;21.74;65.20;99343.88;2071886;28;20054;-55
2022/10/31 02:47:17;;;;;;;3.55;2.42;;;;;;;21.75;65.06;99342.81;2070662;28;20611;-51
2022/10/31 02:48:23;;;;;;;4.45;2.30;;;;;;;21.75;65.22;99334.72;2074065;28;20048;-53
2022/10/31 02:49:29;;;;;;;3.65;2.55;;;;;;;21.75;65.25;99333.88;2072140;28;20038;-53
2022/10/31 02:50:35;;;;;;;4.07;2.25;;;;;;;21.76;65.00;99340.97;2071660;28;20111;-52
2022/10/31 02:51:36;;;;;;;5.57;2.72;;;;;;;21.75;65.00;99333.88;2072118;28;20061;-53
2022/10/31 02:52:38;;;;;;;5.63;2.38;;;;;;;21.76;65.11;99338.28;2072604;28;20038;-55
2022/10/31 02:53:39;;;;;;;3.42;2.67;;;;;;;21.77;64.93;99334.53;2072139;28;20049;-54
2022/10/31 02:54:41;;;;;;;5.18;2.92;;;;;;;21.76;65.14;99335.56;2071046;28;20072;-50
2022/10/31 02:55:49;;;;;;;4.15;2.40;;;;;;;21.77;65.14;99335.34;2074794;28;20052;-54
2022/10/31 02:56:59;;;;;;;6.95;2.60;;;;;;;21.76;65.09;99335.56;2071274;28;20080;-53
2022/10/31 02:58:05;;;;;;;3.35;2.30;;;;;;;21.73;65.11;99335.97;2073736;28;20053;-54
2022/10/31 02:59:06;;;;;;;4.32;2.80;;;;;;;21.75;65.11;99342.00;2071214;28;20073;-51
2022/10/31 03:00:09;;;;;;;3.40;2.55;;;;;;;21.76;64.98;99340.97;2072420;28;20046;-51
2022/10/31 03:01:52;;;;;;;5.10;2.55;;;;;;;21.71;65.02;99338.06;2072007;28;20077;-53
2022/10/31 03:03:04;;;;;;;3.97;3.35;;;;;;;21.71;65.32;99343.47;2072790;28;20478;-52
2022/10/31 03:04:31;;;;;;;2.90;2.00;;;;;;;21.68;65.04;99338.47;2074047;28;20119;-55
2022/10/31 03:05:46;;;;;;;3.05;1.63;;;;;;;21.67;65.33;99334.91;2072041;28;20057;-54
2022/10/31 03:06:54;;;;;;;5.25;2.17;;;;;;;21.69;65.05;99330.16;2070782;28;20057;-55
2022/10/31 03:08:01;;;;;;;7.05;3.28;;;;;;;21.73;64.98;99335.97;2070936;28;20138;-51
2022/10/31 03:09:11;;;;;;;5.13;2.50;;;;;;;21.72;65.02;99331.59;2076877;28;20657;-51
2022/10/31 03:10:18;;;;;;;3.20;2.88;;;;;;;21.72;65.23;99337.00;2073110;28;20050;-54
2022/10/31 03:11:25;;;;;;;3.72;2.60;;;;;;;21.71;65.15;99328.09;2072352;28;20055;-54
2022/10/31 03:12:30;;;;;;;3.63;2.05;;;;;;;21.74;65.14;99332.25;2070922;28;20057;-53
2022/10/31 03:13:38;;;;;;;3.45;1.85;;;;;;;21.72;65.10;99328.91;2073716;28;20057;-53
2022/10/31 03:14:47;;;;;;;3.42;2.50;;;;;;;21.73;65.13;99330.56;2073724;28;20136;-49
2022/10/31 03:15:51;;;;;;;4.65;2.63;;;;;;;21.71;65.13;99328.09;2066899;28;20058;-52
2022/10/31 03:16:58;;;;;;;3.47;2.50;;;;;;;21.71;65.08;99327.25;2064892;28;20213;-55
2022/10/31 03:18:04;;;;;;;3.53;1.90;;;;;;;21.72;65.10;99334.31;2063804;28;20054;-54
2022/10/31 03:19:09;;;;;;;5.57;2.67;;;;;;;21.70;65.13;99331.81;2067123;28;20164;-49
2022/10/31 03:20:10;;;;;;;7.95;2.42;;;;;;;21.71;64.98;99333.47;2068163;28;20045;-55
2022/10/31 03:21:15;;;;;;;5.72;2.58;;;;;;;21.71;65.17;99336.19;2070208;28;20047;-55
2022/10/31 03:22:19;;;;;;;3.45;2.58;;;;;;;21.71;65.01;99335.34;2065965;28;20054;-55
2022/10/31 03:23:23;;;;;;;4.93;2.85;;;;;;;21.71;64.92;99329.97;2069443;28;20060;-49
2022/10/31 03:24:25;;;;;;;4.63;3.15;;;;;;;;;;2069177;28;20054;-54
2022/10/31 03:25:28;;;;;;;2.47;1.73;;;;;;;21.71;64.93;99324.56;2066147;28;20760;-48
2022/10/31 03:26:29;;;;;;;2.63;2.17;;;;;;;21.72;65.06;99326.22;2068929;28;20108;-55
2022/10/31 03:27:36;;;;;;;4.28;2.30;;;;;;;21.73;64.89;99330.56;2069860;28;20100;-48
2022/10/31 03:28:41;;;;;;;3.35;2.78;;;;;;;21.72;64.81;99337.00;2069846;28;20078;-51
2022/10/31 03:29:45;;;;;;;4.38;2.30;;;;;;;21.70;65.05;99336.38;2070351;28;20038;-48
2022/10/31 03:30:48;;;;;;;4.55;2.63;;;;;;;21.71;64.76;99329.97;2067331;28;20054;-52
2022/10/31 03:31:56;;;;;;;2.75;2.38;;;;;;;21.71;64.77;99327.25;2063734;28;20096;-54
2022/10/31 03:33:01;;;;;;;3.03;2.40;;;;;;;21.70;65.01;99334.50;2064332;28;20050;-51
2022/10/31 03:34:04;;;;;;;3.75;2.63;;;;;;;21.69;64.93;99335.56;2066800;28;20085;-48
2022/10/31 03:35:09;;;;;;;4.38;2.45;;;;;;;21.71;64.92;99338.06;2060819;28;20057;-50
2022/10/31 03:36:14;;;;;;;2.95;2.25;;;;;;;21.69;65.05;99340.94;2062304;28;21100;-51
2022/10/31 03:37:19;;;;;;;4.68;2.75;;;;;;;21.70;64.79;99333.69;2056480;28;20053;-51
2022/10/31 03:38:22;;;;;;;4.50;1.85;;;;;;;21.71;64.71;99338.06;2065687;28;20518;-50
2022/10/31 03:39:24;;;;;;;3.72;2.45;;;;;;;21.69;64.95;99334.72;2062792;28;20057;-50
2022/10/31 03:40:28;;;;;;;5.35;2.13;;;;;;;21.71;64.76;99338.88;2065015;28;20140;-48
2022/10/31 03:41:33;;;;;;;4.93;2.30;;;;;;;21.71;64.69;99341.59;2062299;28;20049;-51
2022/10/31 03:42:40;;;;;;;3.28;2.20;;;;;;;21.71;64.90;99343.47;2070958;28;20081;-49
2022/10/31 03:43:46;;;;;;;3.88;2.33;;;;;;;21.69;64.94;99334.72;2071889;28;20042;-51
2022/10/31 03:44:54;;;;;;;3.20;1.73;;;;;;;21.67;64.99;99337.63;2071972;28;20100;-53
2022/10/31 03:45:55;;;;;;;4.22;2.33;;;;;;;21.68;64.82;99338.47;2066105;28;20501;-49
2022/10/31 03:46:59;;;;;;;5.95;2.25;;;;;;;21.68;64.93;99341.19;2068507;28;20064;-50
2022/10/31 03:48:00;;;;;;;3.50;2.65;;;;;;;21.69;64.74;99340.94;2069646;28;20053;-49
2022/10/31 03:49:02;;;;;;;;;;;;;;;21.57;64.99;99348.84;2069157;28;20151;-50
2022/10/31 03:50:04;;;;;;;5.30;2.25;;;;;;;21.59;65.28;99337.81;2070850;28;19936;-51
2022/10/31 03:51:13;;;;;;;3.42;2.13;;;;;;;21.62;65.20;99340.13;2069892;28;20077;-52
2022/10/31 03:52:23;;;;;;;4.10;2.78;;;;;;;21.62;65.17;99342.84;2071103;28;20060;-53
2022/10/31 03:53:31;;;;;;;4.35;2.97;;;;;;;21.63;64.88;99339.91;2067721;28;20037;-50
2022/10/31 03:54:38;;;;;;;4.63;2.15;;;;;;;21.64;65.02;99338.84;2067771;28;20060;-53
2022/10/31 03:55:45;;;;;;;4.75;2.90;;;;;;;21.66;64.90;99340.53;2069609;28;20045;-52
2022/10/31 03:56:52;;;;;;;7.25;2.58;;;;;;;21.66;64.78;99343.25;2071391;28;21729;-52
2022/10/31 03:57:59;;;;;;;5.28;2.10;;;;;;;21.66;64.87;99341.38;2067103;28;20445;-50
2022/10/31 03:59:03;;;;;;;2.20;1.70;;;;;;;21.65;64.85;99339.72;2070773;28;20061;-51
2022/10/31 04:00:09;;;;;;;4.25;2.35;;;;;;;21.66;64.63;99345.94;2067988;28;20057;-50
2022/10/31 04:01:14;;;;;;;3.05;2.03;;;;;;;21.64;64.71;99343.44;2064512;28;20053;-51
2022/10/31 04:02:21;;;;;;;5.70;2.00;;;;;;;21.62;64.70;99343.66;2071725;28;20532;-50
2022/10/31 04:03:25;;;;;;;4.30;2.30;;;;;;;21.63;64.82;99341.78;2066536;28;20057;-52
2022/10/31 04:04:29;;;;;;;4.18;2.42;;;;;;;21.62;64.91;99346.34;2066259;28;20584;-49
2022/10/31 04:05:31;;;;;;;5.65;2.40;;;;;;;21.64;64.90;99344.25;2065402;28;20513;-48
2022/10/31 04:06:35;;;;;;;3.05;2.05;;;;;;;21.67;64.82;99350.28;2065330;28;20058;-48
2022/10/31 04:07:41;;;;;;;5.00;2.28;;;;;;;21.65;64.63;99350.50;2070262;28;20122;-52
2022/10/31 04:08:48;;;;;;;2.75;2.05;;;;;;;21.63;64.72;99348.00;2068640;28;20135;-50
2022/10/31 04:09:51;;;;;;;3.25;2.50;;;;;;;21.63;64.91;99349.88;2065623;28;20050;-51
2022/10/31 04:10:55;;;;;;;4.35;2.25;;;;;;;21.65;64.71;99350.50;2070556;28;20102;-52
2022/10/31 04:11:59;;;;;;;4.63;2.60;;;;;;;21.63;64.60;99350.72;2071500;28;20045;-51
2022/10/31 04:13:05;;;;;;;3.80;2.33;;;;;;;21.64;64.86;99348.84;2071437;28;20164;-51
2022/10/31 04:14:08;;;;;;;4.13;2.58;;;;;;;21.64;64.79;99349.66;2074604;28;20049;-52
2022/10/31 04:15:11;;;;;;;3.58;2.30;;;;;;;21.62;65.17;99349.06;2064730;28;20076;-51
2022/10/31 04:16:13;;;;;;;2.60;1.90;;;;;;;21.62;64.75;99345.53;2068932;28;20057;-52
2022/10/31 04:17:19;;;;;;;4.85;2.50;;;;;;;21.63;64.63;99345.31;2069021;28;20049;-50
2022/10/31 04:18:22;;;;;;;4.05;2.13;;;;;;;21.62;64.80;99346.34;2067849;28;20049;-54
2022/10/31 04:19:24;;;;;;;7.00;2.65;;;;;;;21.62;64.94;99348.22;2071320;28;20095;-50
2022/10/31 04:20:32;;;;;;;3.30;2.00;;;;;;;21.63;64.69;99348.00;2071615;28;20057;-51
2022/10/31 04:21:34;;;;;;;3.30;2.20;;;;;;;21.62;64.78;99345.53;2068600;28;20045;-51
2022/10/31 04:22:34;;;;;;;4.15;2.53;;;;;;;21.62;64.77;99346.34;2072637;28;20048;-49
2022/10/31 04:23:37;;;;;;;3.30;2.17;;;;;;;21.62;64.80;99345.53;2069738;28;20045;-51
2022/10/31 04:24:40;;;;;;;2.83;2.50;;;;;;;21.63;64.78;99352.59;2066209;28;20054;-51
2022/10/31 04:25:42;;;;;;;3.80;2.13;;;;;;;21.63;64.89;99347.19;2066077;28;20049;-48
2022/10/31 04:26:42;;;;;;;3.17;2.35;;;;;;;21.65;64.66;99350.50;2070894;28;20045;-52
2022/10/31 04:27:44;;;;;;;;;;;;;;;21.53;64.97;99344.88;2070840;28;20088;-50
2022/10/31 04:28:44;;;;;;;;;;;;;;;21.45;65.20;99347.75;2072677;28;19921;-48
2022/10/31 04:29:46;;;;;;;2.40;2.20;;;;;;;21.50;65.26;99347.16;2070184;28;20286;-49
2022/10/31 04:30:47;;;;;;;3.25;2.92;;;;;;;21.57;64.87;99354.22;2065136;28;20041;-48
2022/10/31 04:31:49;;;;;;;2.97;2.60;;;;;;;21.58;65.03;99349.66;2067270;28;20049;-50
2022/10/31 04:32:51;;;;;;;2.55;2.10;;;;;;;21.59;64.91;99343.22;2072606;28;20390;-49
2022/10/31 04:33:53;;;;;;;4.82;2.33;;;;;;;21.59;64.72;99345.91;2068808;28;21202;-50
2022/10/31 04:34:54;;;;;;;4.68;1.90;;;;;;;21.60;64.81;99345.72;2067776;28;20077;-50
2022/10/31 04:35:55;;;;;;;4.68;2.60;;;;;;;21.61;64.76;99341.97;2068455;28;20049;-49
2022/10/31 04:36:57;;;;;;;3.03;2.08;;;;;;;21.61;64.80;99344.69;2069284;28;20080;-50
2022/10/31 04:37:58;;;;;;;4.88;2.78;;;;;;;21.60;64.65;99347.59;2062858;28;20057;-50
2022/10/31 04:38:59;;;;;;;;;;;;;;;21.50;64.87;99345.28;2066351;28;20053;-50
2022/10/31 04:40:00;;;;;;;;;;;;;;;21.42;65.01;99340.94;2066507;28;19936;-49
2022/10/31 04:41:02;;;;;;;3.88;3.15;;;;;;;21.48;65.17;99347.38;2065597;28;19932;-51
2022/10/31 04:42:03;;;;;;;2.63;2.20;;;;;;;21.51;64.98;99344.25;2064338;28;20066;-48
2022/10/31 04:43:05;;;;;;;3.40;2.50;;;;;;;21.55;64.98;99350.91;2069880;28;27806;-51
2022/10/31 04:44:05;;;;;;;3.80;2.17;;;;;;;21.56;64.61;99347.19;2063638;28;20437;-51
2022/10/31 04:45:07;;;;;;;;;;;;;;;21.49;64.92;99351.72;2066821;28;20072;-52
2022/10/31 04:46:08;;;;;;;3.85;2.35;;;;;;;21.51;64.98;99354.25;2064228;28;19933;-52
2022/10/31 04:47:10;;;;;;;3.85;2.15;;;;;;;21.55;64.98;99353.59;2066991;28;20122;-52
2022/10/31 04:48:12;;;;;;;2.75;2.55;;;;;;;21.56;64.83;99349.88;2068220;28;20072;-50
2022/10/31 04:49:14;;;;;;;4.85;2.25;;;;;;;21.57;64.80;99340.75;2064351;28;20145;-48
2022/10/31 04:50:15;;;;;;;3.63;2.30;;;;;;;21.59;64.70;99345.91;2066025;28;20056;-50
2022/10/31 04:51:16;;;;;;;2.63;2.17;;;;;;;21.58;64.46;99347.78;2065326;28;20566;-49
2022/10/31 04:52:17;;;;;;;3.08;2.33;;;;;;;21.60;64.67;99348.41;2063983;28;20053;-51
2022/10/31 04:53:19;;;;;;;4.68;2.00;;;;;;;21.60;64.45;99353.81;2065280;28;20060;-49
2022/10/31 04:54:20;;;;;;;4.47;2.83;;;;;;;21.58;64.58;99349.66;2066134;28;20505;-49
2022/10/31 04:55:22;;;;;;;4.80;2.88;;;;;;;21.61;64.39;99351.94;2066463;28;20071;-49
2022/10/31 04:56:23;;;;;;;5.43;2.90;;;;;;;21.58;64.46;99355.06;2066392;28;20994;-50
2022/10/31 04:57:24;;;;;;;;;;;;;;;21.48;64.99;99350.06;2065040;28;20049;-51
2022/10/31 04:58:25;;;;;;;3.22;2.10;;;;;;;21.50;64.97;99347.16;2065288;28;19955;-52
2022/10/31 04:59:27;;;;;;;3.85;2.45;;;;;;;21.52;64.71;99356.72;2068070;28;20049;-50
2022/10/31 05:00:28;;;;;;;4.97;2.38;;;;;;;21.55;64.68;99356.31;2067144;28;20060;-52
2022/10/31 05:01:29;;;;;;;3.63;2.20;;;;;;;21.55;64.63;99348.19;2065286;28;20067;-49
2022/10/31 05:02:30;;;;;;;4.60;2.72;;;;;;;21.55;64.59;99350.91;2070825;28;20068;-50
2022/10/31 05:03:33;;;;;;;3.20;2.03;;;;;;;21.56;64.44;99351.72;2070982;28;20060;-51
2022/10/31 05:04:34;;;;;;;3.33;2.30;;;;;;;21.57;64.65;99348.84;2065958;28;20057;-53